createdAt,value
2022-12-16T00:02:03.419Z,1.01
2022-12-16T00:05:07.515Z,1.02
2022-12-16T00:08:11.207Z,1.01
2022-12-16T00:11:15.089Z,1.01
2022-12-16T00:14:18.143Z,1.01
2022-12-16T00:17:21.577Z,1.01
2022-12-16T00:20:24.691Z,1.02
2022-12-16T00:23:28.295Z,1.02
2022-12-16T00:26:32.564Z,0.98
2022-12-16T00:29:36.130Z,1.01
2022-12-16T00:32:39.911Z,1.03
2022-12-16T00:35:46.145Z,1.06
2022-12-16T00:38:52.015Z,1.05
2022-12-16T00:41:56.697Z,1.05
2022-12-16T00:44:59.857Z,1.04
2022-12-16T00:48:03.641Z,1.04
2022-12-16T00:51:06.810Z,1.04
2022-12-16T00:54:10.492Z,1.06
2022-12-16T00:57:13.827Z,1.07
2022-12-16T01:00:22.561Z,1.07
2022-12-16T01:03:26.067Z,1.07
2022-12-16T01:06:29.788Z,1.06
2022-12-16T01:09:34.093Z,1.07
2022-12-16T01:12:38.078Z,1.06
2022-12-16T01:15:41.168Z,1.10
2022-12-16T01:18:44.736Z,1.08
2022-12-16T01:21:47.812Z,1.08
2022-12-16T01:24:51.790Z,1.07
2022-12-16T01:27:55.612Z,1.08
2022-12-16T01:31:02.211Z,1.09
2022-12-16T01:34:06.197Z,1.09
2022-12-16T01:37:13.056Z,1.10
2022-12-16T01:40:21.100Z,1.10
2022-12-16T01:43:34.004Z,1.11
2022-12-16T01:46:38.714Z,1.07
2022-12-16T01:49:47.301Z,1.07
2022-12-16T01:52:55.573Z,1.07
2022-12-16T01:56:00.586Z,1.07
2022-12-16T01:59:04.107Z,1.08
2022-12-16T02:02:08.130Z,1.09
2022-12-16T02:05:22.366Z,1.09
2022-12-16T02:08:25.906Z,1.09
2022-12-16T02:12:06.006Z,1.07
2022-12-16T02:15:41.636Z,1.08
2022-12-16T02:19:18.925Z,1.12
2022-12-16T02:22:25.200Z,1.11
2022-12-16T02:25:59.116Z,1.11
2022-12-16T02:29:33.098Z,1.12
2022-12-16T02:32:59.980Z,1.13
2022-12-16T02:36:16.027Z,1.14
2022-12-16T02:39:29.808Z,1.14
2022-12-16T02:42:58.049Z,1.15
2022-12-16T02:46:02.800Z,1.13
2022-12-16T02:49:12.393Z,1.14
2022-12-16T02:52:17.766Z,1.16
2022-12-16T02:55:26.616Z,1.19
2022-12-16T02:58:42.051Z,1.18
2022-12-16T03:01:58.033Z,1.20
2022-12-16T03:05:09.335Z,1.22
2022-12-16T03:08:18.789Z,1.25
2022-12-16T03:11:23.964Z,1.27
2022-12-16T03:14:32.309Z,1.30
2022-12-16T03:17:37.319Z,1.30
2022-12-16T03:21:02.047Z,1.31
2022-12-16T03:24:10.286Z,1.31
2022-12-16T03:27:21.925Z,1.36
2022-12-16T03:30:50.314Z,1.40
2022-12-16T03:34:20.195Z,1.42
2022-12-16T03:37:27.196Z,1.40
2022-12-16T03:40:34.327Z,1.42
2022-12-16T03:43:38.027Z,1.44
2022-12-16T03:46:41.468Z,1.45
2022-12-16T03:49:45.713Z,1.45
2022-12-16T03:52:49.275Z,1.48
2022-12-16T03:55:55.202Z,1.48
2022-12-16T03:59:00.328Z,1.49
2022-12-16T04:02:04.801Z,1.51
2022-12-16T04:05:10.606Z,1.55
2022-12-16T04:08:13.846Z,1.56
2022-12-16T04:11:38.657Z,1.55
2022-12-16T04:15:00.579Z,1.59
2022-12-16T04:18:24.055Z,1.61
2022-12-16T04:21:46.691Z,1.64
2022-12-16T04:24:50.393Z,1.66
2022-12-16T04:27:56.312Z,1.63
2022-12-16T04:30:59.951Z,1.65
2022-12-16T04:34:22.046Z,1.66
2022-12-16T04:37:44.871Z,1.70
2022-12-16T04:41:06.911Z,1.69
2022-12-16T04:44:29.159Z,1.68
2022-12-16T04:47:56.949Z,1.71
2022-12-16T04:51:19.864Z,1.71
2022-12-16T04:54:41.593Z,1.70
2022-12-16T04:58:12.710Z,1.69
2022-12-16T05:01:34.740Z,1.70
2022-12-16T05:04:57.644Z,1.70
2022-12-16T05:08:19.529Z,1.72
2022-12-16T05:11:41.862Z,1.76
2022-12-16T05:15:03.665Z,1.77
2022-12-16T05:18:33.850Z,1.82
2022-12-16T05:22:08.780Z,1.82
2022-12-16T05:25:30.810Z,1.82
2022-12-16T05:28:52.603Z,1.88
2022-12-16T05:32:14.875Z,1.92
2022-12-16T05:35:36.672Z,2.09
2022-12-16T05:38:58.944Z,2.23
2022-12-16T05:42:21.529Z,2.32
2022-12-16T05:45:43.780Z,2.36
2022-12-16T05:49:05.786Z,2.44
2022-12-16T05:52:27.814Z,2.54
2022-12-16T05:55:49.814Z,2.66
2022-12-16T05:59:12.154Z,2.69
2022-12-16T06:02:33.903Z,2.70
2022-12-16T06:05:56.164Z,2.71
2022-12-16T06:09:18.295Z,2.72
2022-12-16T06:12:40.768Z,2.72
2022-12-16T06:16:08.210Z,2.70
2022-12-16T06:19:30.597Z,2.71
2022-12-16T06:22:52.180Z,2.73
2022-12-16T06:26:25.929Z,2.73
2022-12-16T06:29:48.210Z,2.73
2022-12-16T06:33:11.037Z,2.72
2022-12-16T06:36:34.002Z,2.72
2022-12-16T06:39:56.198Z,2.70
2022-12-16T06:43:17.833Z,2.72
2022-12-16T06:46:39.903Z,2.72
2022-12-16T06:50:01.752Z,2.68
2022-12-16T06:53:24.069Z,2.64
2022-12-16T06:56:46.326Z,2.67
2022-12-16T07:00:08.502Z,2.70
2022-12-16T07:03:35.374Z,2.66
2022-12-16T07:07:11.724Z,2.67
2022-12-16T07:10:39.847Z,2.64
2022-12-16T07:14:06.356Z,2.66
2022-12-16T07:17:31.568Z,2.69
2022-12-16T07:20:55.114Z,2.66
2022-12-16T07:24:16.946Z,2.67
2022-12-16T07:27:38.952Z,2.68
2022-12-16T07:31:02.984Z,2.65
2022-12-16T07:34:25.385Z,2.64
2022-12-16T07:37:47.530Z,2.66
2022-12-16T07:41:09.639Z,2.69
2022-12-16T07:44:31.386Z,2.71
2022-12-16T07:47:53.504Z,2.71
2022-12-16T07:51:17.663Z,2.73
2022-12-16T07:54:40.208Z,2.75
2022-12-16T07:58:09.030Z,2.78
2022-12-16T08:01:31.459Z,2.80
2022-12-16T08:04:53.899Z,2.80
2022-12-16T08:08:17.851Z,2.80
2022-12-16T08:11:42.190Z,2.83
2022-12-16T08:15:04.050Z,2.84
2022-12-16T08:18:26.508Z,2.82
2022-12-16T08:21:48.516Z,2.82
2022-12-16T08:25:10.553Z,2.85
2022-12-16T08:28:32.295Z,2.83
2022-12-16T08:31:55.554Z,2.82
2022-12-16T08:35:17.326Z,2.83
2022-12-16T08:38:39.643Z,2.84
2022-12-16T08:42:01.974Z,2.89
2022-12-16T08:45:25.136Z,2.85
2022-12-16T08:48:47.464Z,2.91
2022-12-16T08:52:11.055Z,2.87
2022-12-16T08:55:32.770Z,2.92
2022-12-16T08:58:54.975Z,2.93
2022-12-16T09:02:17.612Z,2.98
2022-12-16T09:05:39.792Z,3.07
2022-12-16T09:09:01.798Z,3.16
2022-12-16T09:12:23.747Z,3.26
2022-12-16T09:15:45.885Z,3.35
2022-12-16T09:19:08.093Z,3.41
2022-12-16T09:22:31.085Z,3.47
2022-12-16T09:25:53.866Z,3.47
2022-12-16T09:29:18.573Z,3.50
2022-12-16T09:32:41.317Z,3.43
2022-12-16T09:36:02.914Z,3.41
2022-12-16T09:39:25.050Z,3.44
2022-12-16T09:43:16.431Z,3.50
2022-12-16T09:47:08.392Z,3.49
2022-12-16T09:50:40.210Z,3.49
2022-12-16T09:54:03.945Z,3.47
2022-12-16T09:57:26.575Z,3.58
2022-12-16T10:00:51.578Z,3.63
2022-12-16T10:04:13.783Z,3.61
2022-12-16T10:07:39.825Z,3.55
2022-12-16T10:11:27.321Z,3.51
2022-12-16T10:15:04.215Z,3.51
2022-12-16T10:18:58.773Z,3.52
2022-12-16T10:22:47.847Z,3.57
2022-12-16T10:26:15.825Z,3.60
2022-12-16T10:29:43.928Z,3.55
2022-12-16T10:33:08.296Z,3.60
2022-12-16T10:36:40.498Z,3.57
2022-12-16T10:40:08.935Z,3.63
2022-12-16T10:43:39.976Z,3.61
2022-12-16T10:47:02.386Z,3.50
2022-12-16T10:50:24.560Z,3.51
2022-12-16T10:53:59.512Z,3.52
2022-12-16T10:57:46.227Z,3.47
2022-12-16T11:01:11.738Z,3.49
2022-12-16T11:04:56.143Z,3.52
2022-12-16T11:08:23.180Z,3.39
2022-12-16T11:11:47.418Z,3.38
2022-12-16T11:15:28.730Z,3.40
2022-12-16T11:18:58.777Z,3.50
2022-12-16T11:22:36.444Z,3.62
2022-12-16T11:25:57.973Z,3.65
2022-12-16T11:29:39.653Z,3.73
2022-12-16T11:33:08.748Z,3.68
2022-12-16T11:36:40.356Z,3.66
2022-12-16T11:40:02.525Z,3.59
2022-12-16T11:43:30.118Z,3.53
2022-12-16T11:47:00.396Z,3.50
2022-12-16T11:50:36.794Z,3.47
2022-12-16T11:54:08.389Z,3.50
2022-12-16T11:57:44.492Z,3.50
2022-12-16T12:01:35.359Z,3.54
2022-12-16T12:05:06.357Z,3.58
2022-12-16T12:09:02.161Z,3.59
2022-12-16T12:12:56.128Z,3.63
2022-12-16T12:17:11.065Z,3.59
2022-12-16T12:25:16.882Z,3.63
2022-12-16T12:29:01.097Z,3.65
2022-12-16T12:32:38.253Z,3.66
2022-12-16T12:36:33.223Z,3.66
2022-12-16T12:40:18.573Z,3.66
2022-12-16T12:44:11.095Z,3.67
2022-12-16T12:47:33.336Z,3.64
2022-12-16T12:51:38.351Z,3.63
2022-12-16T12:55:04.841Z,3.64
2022-12-16T12:58:31.749Z,3.68
2022-12-16T13:01:57.256Z,3.75
2022-12-16T13:05:24.707Z,3.81
2022-12-16T13:08:57.932Z,3.94
2022-12-16T13:12:26.789Z,4.02
2022-12-16T13:15:57.864Z,4.02
2022-12-16T13:19:47.784Z,4.03
2022-12-16T13:23:09.957Z,4.08
2022-12-16T13:26:40.092Z,4.15
2022-12-16T13:30:29.637Z,4.15
2022-12-16T13:33:55.553Z,4.21
2022-12-16T13:37:33.649Z,4.22
2022-12-16T13:41:18.293Z,4.23
2022-12-16T13:45:03.688Z,4.25
2022-12-16T13:48:50.838Z,4.28
2022-12-16T13:52:23.331Z,4.27
2022-12-16T13:56:25.513Z,4.30
2022-12-16T13:59:50.568Z,4.24
2022-12-16T14:03:16.825Z,4.18
2022-12-16T14:06:44.810Z,4.12
2022-12-16T14:10:08.549Z,4.06
2022-12-16T14:13:57.670Z,4.03
2022-12-16T14:17:23.393Z,4.00
2022-12-16T14:20:55.286Z,3.94
2022-12-16T14:24:27.100Z,3.94
2022-12-16T14:27:53.553Z,3.89
2022-12-16T14:31:34.769Z,3.88
2022-12-16T14:34:57.212Z,3.88
2022-12-16T14:38:39.177Z,3.83
2022-12-16T14:42:01.053Z,3.86
2022-12-16T14:45:42.904Z,3.84
2022-12-16T14:49:07.319Z,3.75
2022-12-16T14:52:44.153Z,3.65
2022-12-16T14:56:06.181Z,3.63
2022-12-16T14:59:35.069Z,3.57
2022-12-16T15:03:03.887Z,3.55
2022-12-16T15:06:32.664Z,3.64
2022-12-16T15:10:08.494Z,3.62
2022-12-16T15:13:38.332Z,3.70
2022-12-16T15:17:03.183Z,3.67
2022-12-16T15:20:42.310Z,3.67
2022-12-16T15:24:04.704Z,3.59
2022-12-16T15:27:41.743Z,3.59
2022-12-16T15:31:05.928Z,3.60
2022-12-16T15:34:39.603Z,3.59
2022-12-16T15:38:04.424Z,3.55
2022-12-16T15:41:56.747Z,3.50
2022-12-16T15:45:18.621Z,3.46
2022-12-16T15:48:49.707Z,3.47
2022-12-16T15:52:11.978Z,3.48
2022-12-16T15:56:04.553Z,3.46
2022-12-16T15:59:34.050Z,3.44
2022-12-16T16:03:10.747Z,3.40
2022-12-16T16:06:51.909Z,3.35
2022-12-16T16:10:32.706Z,3.30
2022-12-16T16:14:04.255Z,3.25
2022-12-16T16:17:41.350Z,3.22
2022-12-16T16:21:03.878Z,3.14
2022-12-16T16:24:28.246Z,3.12
2022-12-16T16:27:50.773Z,3.08
2022-12-16T16:31:12.378Z,3.01
2022-12-16T16:34:35.310Z,2.97
2022-12-16T16:37:57.475Z,2.91
2022-12-16T16:41:21.640Z,2.88
2022-12-16T16:44:43.625Z,2.88
2022-12-16T16:48:06.748Z,2.85
2022-12-16T16:51:28.471Z,2.82
2022-12-16T16:54:50.673Z,2.80
2022-12-16T16:58:12.138Z,2.80
2022-12-16T17:01:37.519Z,2.77
2022-12-16T17:04:59.552Z,2.76
2022-12-16T17:08:21.570Z,2.67
2022-12-16T17:11:43.239Z,2.61
2022-12-16T17:15:05.794Z,2.58
2022-12-16T17:18:28.857Z,2.50
2022-12-16T17:21:50.944Z,2.44
2022-12-16T17:25:23.410Z,2.35
2022-12-16T17:28:46.637Z,2.26
2022-12-16T17:32:08.992Z,2.16
2022-12-16T17:35:30.886Z,2.08
2022-12-16T17:38:57.674Z,2.03
2022-12-16T17:42:34.795Z,2.00
2022-12-16T17:45:56.568Z,2.01
2022-12-16T17:49:18.683Z,2.01
2022-12-16T17:52:40.881Z,1.99
2022-12-16T17:56:03.005Z,1.99
2022-12-16T17:59:25.343Z,2.02
2022-12-16T18:02:48.432Z,2.12
2022-12-16T18:06:16.094Z,2.09
2022-12-16T18:09:38.083Z,2.09
2022-12-16T18:13:01.087Z,2.08
2022-12-16T18:16:23.089Z,2.08
2022-12-16T18:19:45.318Z,2.12
2022-12-16T18:23:11.739Z,2.15
2022-12-16T18:26:35.054Z,2.16
2022-12-16T18:30:17.979Z,2.14
2022-12-16T18:33:40.458Z,2.19
2022-12-16T18:37:03.089Z,2.20
2022-12-16T18:40:26.653Z,2.21
2022-12-16T18:43:48.933Z,2.25
2022-12-16T18:47:11.526Z,2.26
2022-12-16T18:50:37.773Z,2.25
2022-12-16T18:54:01.077Z,2.26
2022-12-16T18:57:23.926Z,2.26
2022-12-16T19:00:46.960Z,2.22
2022-12-16T19:04:09.079Z,2.20
2022-12-16T19:07:33.963Z,2.18
2022-12-16T19:10:57.793Z,2.17
2022-12-16T19:14:20.899Z,2.16
2022-12-16T19:17:42.287Z,2.15
2022-12-16T19:21:11.069Z,2.12
2022-12-16T19:24:34.293Z,2.07
2022-12-16T19:27:58.815Z,2.06
2022-12-16T19:31:21.449Z,2.10
2022-12-16T19:34:45.095Z,2.09
2022-12-16T19:38:11.897Z,2.11
2022-12-16T19:41:36.038Z,2.12
2022-12-16T19:45:00.259Z,2.14
2022-12-16T19:48:23.941Z,2.14
2022-12-16T19:51:46.763Z,2.13
2022-12-16T19:58:56.283Z,2.09
2022-12-16T20:02:19.631Z,2.08
2022-12-16T20:05:41.769Z,2.07
2022-12-16T20:09:03.893Z,2.06
2022-12-16T20:12:26.853Z,2.05
2022-12-16T20:15:48.859Z,2.08
2022-12-16T20:19:12.492Z,2.08
2022-12-16T20:22:34.448Z,2.04
2022-12-16T20:25:56.946Z,1.98
2022-12-16T20:29:20.038Z,1.99
2022-12-16T20:32:42.042Z,2.03
2022-12-16T20:36:17.820Z,2.09
2022-12-16T20:39:39.906Z,2.11
2022-12-16T20:43:03.400Z,2.15
2022-12-16T20:46:25.813Z,2.17
2022-12-16T20:49:48.996Z,2.17
2022-12-16T20:53:10.859Z,2.17
2022-12-16T20:56:32.904Z,2.14
2022-12-16T20:59:57.922Z,2.11
2022-12-16T21:03:21.114Z,2.05
2022-12-16T21:06:44.298Z,2.01
2022-12-16T21:10:06.466Z,1.97
2022-12-16T21:13:32.394Z,1.92
2022-12-16T21:16:59.459Z,1.91
2022-12-16T21:20:23.371Z,1.87
2022-12-16T21:23:46.012Z,1.85
2022-12-16T21:27:08.886Z,1.85
2022-12-16T21:30:31.717Z,1.84
2022-12-16T21:33:54.330Z,1.82
2022-12-16T21:37:18.734Z,1.81
2022-12-16T21:40:41.438Z,1.77
2022-12-16T21:44:03.250Z,1.77
2022-12-16T21:47:25.445Z,1.73
2022-12-16T21:50:47.780Z,1.67
2022-12-16T21:54:11.593Z,1.62
2022-12-16T21:57:44.178Z,1.58
2022-12-16T22:01:14.174Z,1.55
2022-12-16T22:04:36.434Z,1.50
2022-12-16T22:07:58.292Z,1.42
2022-12-16T22:11:28.356Z,1.44
2022-12-16T22:14:50.274Z,1.43
2022-12-16T22:18:12.504Z,1.41
2022-12-16T22:21:36.556Z,1.40
2022-12-16T22:24:58.803Z,1.40
2022-12-16T22:28:23.111Z,1.37
2022-12-16T22:31:45.219Z,1.38
2022-12-16T22:35:08.182Z,1.37
2022-12-16T22:38:30.281Z,1.34
2022-12-16T22:41:53.213Z,1.33
2022-12-16T22:45:15.429Z,1.31
2022-12-16T22:48:37.319Z,1.28
2022-12-16T22:51:59.410Z,1.29
2022-12-16T22:55:21.030Z,1.26
2022-12-16T22:58:43.804Z,1.25
2022-12-16T23:02:05.669Z,1.20
2022-12-16T23:05:28.242Z,1.16
2022-12-16T23:08:51.212Z,1.10
2022-12-16T23:12:13.919Z,1.06
2022-12-16T23:15:35.913Z,1.00
2022-12-16T23:18:58.358Z,0.95
2022-12-16T23:22:19.922Z,0.92
2022-12-16T23:25:42.011Z,0.86
2022-12-16T23:29:03.791Z,0.84
2022-12-16T23:32:25.874Z,0.79
2022-12-16T23:35:47.613Z,0.78
2022-12-16T23:39:09.877Z,0.78
2022-12-16T23:42:31.982Z,0.78
2022-12-16T23:45:54.186Z,0.77
2022-12-16T23:49:19.090Z,0.83
2022-12-16T23:52:41.847Z,0.83
2022-12-16T23:56:03.817Z,0.83
2022-12-16T23:59:26.450Z,0.84
